sensor_id;sensor_type;location;lat;lon;timestamp;pressure;altitude;pressure_sealevel;temperature;humidity
74716;BME280;63234;37.558;127.058;2022-10-22T00:02:11;100578.75;;;11.64;93.13
74716;BME280;63234;37.558;127.058;2022-10-22T00:04:40;100581.63;;;11.62;93.35
74716;BME280;63234;37.558;127.058;2022-10-22T00:07:05;100576.47;;;11.67;93.24
74716;BME280;63234;37.558;127.058;2022-10-22T00:09:30;100585.06;;;11.69;93.22
74716;BME280;63234;37.558;127.058;2022-10-22T00:11:56;100580.16;;;11.66;93.10
74716;BME280;63234;37.558;127.058;2022-10-22T00:14:21;100581.28;;;11.77;92.89
74716;BME280;63234;37.558;127.058;2022-10-22T00:16:46;100582.97;;;11.71;93.20
74716;BME280;63234;37.558;127.058;2022-10-22T00:19:12;100581.16;;;11.72;93.06
74716;BME280;63234;37.558;127.058;2022-10-22T00:21:39;100580.72;;;11.75;93.30
74716;BME280;63234;37.558;127.058;2022-10-22T00:24:04;100580.72;;;11.75;93.32
74716;BME280;63234;37.558;127.058;2022-10-22T00:26:30;100582.97;;;11.71;93.70
74716;BME280;63234;37.558;127.058;2022-10-22T00:28:55;100587.72;;;11.69;93.67
74716;BME280;63234;37.558;127.058;2022-10-22T00:31:20;100588.53;;;11.70;94.00
74716;BME280;63234;37.558;127.058;2022-10-22T00:33:46;100586.31;;;11.67;93.81
74716;BME280;63234;37.558;127.058;2022-10-22T00:36:13;100593.06;;;11.69;93.81
74716;BME280;63234;37.558;127.058;2022-10-22T00:38:39;100597.94;;;11.73;93.45
74716;BME280;63234;37.558;127.058;2022-10-22T00:41:05;100601.81;;;11.77;93.73
74716;BME280;63234;37.558;127.058;2022-10-22T00:43:31;100601.03;;;11.69;93.75
74716;BME280;63234;37.558;127.058;2022-10-22T00:45:56;100604.28;;;11.71;93.77
74716;BME280;63234;37.558;127.058;2022-10-22T00:48:24;100595.03;;;11.81;93.68
74716;BME280;63234;37.558;127.058;2022-10-22T00:50:55;100595.03;;;11.81;93.64
74716;BME280;63234;37.558;127.058;2022-10-22T00:53:25;100589.91;;;11.79;93.68
74716;BME280;63234;37.558;127.058;2022-10-22T00:55:53;100586.84;;;11.76;93.78
74716;BME280;63234;37.558;127.058;2022-10-22T00:58:22;100592.81;;;11.71;93.96
74716;BME280;63234;37.558;127.058;2022-10-22T01:00:48;100581.59;;;11.69;93.96
74716;BME280;63234;37.558;127.058;2022-10-22T01:03:14;100583.03;;;11.65;94.20
74716;BME280;63234;37.558;127.058;2022-10-22T01:05:48;100580.16;;;11.66;94.25
74716;BME280;63234;37.558;127.058;2022-10-22T01:08:40;100594.91;;;11.69;94.20
74716;BME280;63234;37.558;127.058;2022-10-22T01:14:34;100583.81;;;11.72;94.57
74716;BME280;63234;37.558;127.058;2022-10-22T01:17:08;100583.81;;;11.72;94.73
74716;BME280;63234;37.558;127.058;2022-10-22T01:20:01;100590.75;;;11.73;94.76
74716;BME280;63234;37.558;127.058;2022-10-22T01:22:39;100584.00;;;11.70;94.66
74716;BME280;63234;37.558;127.058;2022-10-22T01:25:20;100591.22;;;11.95;94.50
74716;BME280;63234;37.558;127.058;2022-10-22T01:28:04;100584.53;;;11.86;94.44
74716;BME280;63234;37.558;127.058;2022-10-22T01:30:35;100594.59;;;11.84;94.50
74716;BME280;63234;37.558;127.058;2022-10-22T01:33:05;100590.06;;;11.84;94.57
74716;BME280;63234;37.558;127.058;2022-10-22T01:35:36;100591.91;;;11.84;94.75
74716;BME280;63234;37.558;127.058;2022-10-22T01:38:06;100581.44;;;11.89;94.73
74716;BME280;63234;37.558;127.058;2022-10-22T01:40:34;100578.19;;;11.87;94.53
74716;BME280;63234;37.558;127.058;2022-10-22T01:43:03;100574.53;;;11.81;94.48
74716;BME280;63234;37.558;127.058;2022-10-22T01:45:32;100578.19;;;11.80;94.62
74716;BME280;63234;37.558;127.058;2022-10-22T01:48:08;100580.03;;;11.86;94.58
74716;BME280;63234;37.558;127.058;2022-10-22T01:51:06;100578.69;;;11.96;94.50
74716;BME280;63234;37.558;127.058;2022-10-22T01:53:44;100569.97;;;11.88;94.49
74716;BME280;63234;37.558;127.058;2022-10-22T01:56:27;100574.41;;;11.94;94.71
74716;BME280;63234;37.558;127.058;2022-10-22T01:59:08;100576.88;;;11.96;94.79
74716;BME280;63234;37.558;127.058;2022-10-22T02:01:51;100573.81;;;11.92;95.12
74716;BME280;63234;37.558;127.058;2022-10-22T02:04:22;100586.19;;;11.87;95.10
74716;BME280;63234;37.558;127.058;2022-10-22T02:06:51;100586.78;;;11.82;95.32
74716;BME280;63234;37.558;127.058;2022-10-22T02:09:21;100587.22;;;11.79;95.63
74716;BME280;63234;37.558;127.058;2022-10-22T02:11:48;100590.13;;;11.78;95.70
74716;BME280;63234;37.558;127.058;2022-10-22T02:14:15;100584.53;;;11.86;96.02
74716;BME280;63234;37.558;127.058;2022-10-22T02:16:44;100584.38;;;11.81;95.86
74716;BME280;63234;37.558;127.058;2022-10-22T02:19:24;100581.47;;;11.82;95.92
74716;BME280;63234;37.558;127.058;2022-10-22T02:21:50;100578.78;;;11.89;95.94
74716;BME280;63234;37.558;127.058;2022-10-22T02:24:16;100581.44;;;11.89;95.96
74716;BME280;63234;37.558;127.058;2022-10-22T02:26:57;100572.44;;;11.90;95.79
74716;BME280;63234;37.558;127.058;2022-10-22T02:29:29;100583.53;;;11.87;95.72
74716;BME280;63234;37.558;127.058;2022-10-22T02:32:00;100586.56;;;11.90;95.75
74716;BME280;63234;37.558;127.058;2022-10-22T02:34:29;100595.75;;;11.94;95.58
74716;BME280;63234;37.558;127.058;2022-10-22T02:36:56;100589.81;;;11.92;95.79
74716;BME280;63234;37.558;127.058;2022-10-22T02:39:23;100584.00;;;12.02;95.67
74716;BME280;63234;37.558;127.058;2022-10-22T02:41:49;100590.94;;;12.03;95.70
74716;BME280;63234;37.558;127.058;2022-10-22T02:44:14;100594.22;;;12.05;95.85
74716;BME280;63234;37.558;127.058;2022-10-22T02:46:41;100586.38;;;12.10;95.80
74716;BME280;63234;37.558;127.058;2022-10-22T02:49:07;100597.78;;;12.18;95.50
74716;BME280;63234;37.558;127.058;2022-10-22T02:51:33;100597.63;;;12.12;95.56
74716;BME280;63234;37.558;127.058;2022-10-22T02:53:58;100595.56;;;12.14;95.33
74716;BME280;63234;37.558;127.058;2022-10-22T02:56:24;100600.53;;;12.29;95.07
74716;BME280;63234;37.558;127.058;2022-10-22T03:01:51;100606.44;;;12.13;95.09
74716;BME280;63234;37.558;127.058;2022-10-22T03:04:16;100614.88;;;12.10;95.30
74716;BME280;63234;37.558;127.058;2022-10-22T03:06:42;100613.41;;;12.32;95.29
74716;BME280;63234;37.558;127.058;2022-10-22T03:09:09;100615.13;;;12.27;95.11
74716;BME280;63234;37.558;127.058;2022-10-22T03:11:34;100622.31;;;12.26;95.12
74716;BME280;63234;37.558;127.058;2022-10-22T03:13:59;100621.38;;;12.39;95.24
74716;BME280;63234;37.558;127.058;2022-10-22T03:16:25;100620.25;;;12.47;94.93
74716;BME280;63234;37.558;127.058;2022-10-22T03:18:50;100620.78;;;12.55;94.90
74716;BME280;63234;37.558;127.058;2022-10-22T03:21:26;100625.47;;;12.60;94.84
74716;BME280;63234;37.558;127.058;2022-10-22T03:23:54;100612.34;;;12.58;94.72
74716;BME280;63234;37.558;127.058;2022-10-22T03:26:20;100622.28;;;12.70;94.58
74716;BME280;63234;37.558;127.058;2022-10-22T03:28:45;100620.50;;;12.63;94.53
74716;BME280;63234;37.558;127.058;2022-10-22T03:31:12;100626.41;;;12.66;94.72
74716;BME280;63234;37.558;127.058;2022-10-22T03:33:38;100627.91;;;12.61;94.62
74716;BME280;63234;37.558;127.058;2022-10-22T03:36:04;100628.50;;;12.63;94.62
74716;BME280;63234;37.558;127.058;2022-10-22T03:38:31;100627.91;;;12.61;94.31
74716;BME280;63234;37.558;127.058;2022-10-22T03:40:56;100636.06;;;12.67;94.20
74716;BME280;63234;37.558;127.058;2022-10-22T03:43:22;100638.28;;;12.70;94.16
74716;BME280;63234;37.558;127.058;2022-10-22T03:45:48;100622.72;;;12.67;94.00
74716;BME280;63234;37.558;127.058;2022-10-22T03:48:13;100633.59;;;12.65;94.16
74716;BME280;63234;37.558;127.058;2022-10-22T03:50:38;100630.34;;;12.63;93.95
74716;BME280;63234;37.558;127.058;2022-10-22T03:53:04;100629.97;;;12.59;94.09
74716;BME280;63234;37.558;127.058;2022-10-22T03:55:29;100641.91;;;12.57;94.14
74716;BME280;63234;37.558;127.058;2022-10-22T03:57:54;100646.56;;;12.61;94.15
74716;BME280;63234;37.558;127.058;2022-10-22T04:00:20;100645.41;;;12.57;94.23
74716;BME280;63234;37.558;127.058;2022-10-22T04:02:45;100648.16;;;12.69;94.08
74716;BME280;63234;37.558;127.058;2022-10-22T04:05:11;100657.31;;;12.73;93.79
74716;BME280;63234;37.558;127.058;2022-10-22T04:07:36;100655.91;;;12.71;93.47
74716;BME280;63234;37.558;127.058;2022-10-22T04:10:02;100660.66;;;12.69;93.56
74716;BME280;63234;37.558;127.058;2022-10-22T04:12:27;100655.03;;;12.77;93.27
74716;BME280;63234;37.558;127.058;2022-10-22T04:14:53;100654.88;;;12.72;93.21
74716;BME280;63234;37.558;127.058;2022-10-22T04:17:18;100652.34;;;12.77;93.08
74716;BME280;63234;37.558;127.058;2022-10-22T04:19:43;100654.59;;;12.80;92.72
74716;BME280;63234;37.558;127.058;2022-10-22T04:22:09;100657.84;;;12.82;92.52
74716;BME280;63234;37.558;127.058;2022-10-22T04:24:34;100662.13;;;12.83;92.05
74716;BME280;63234;37.558;127.058;2022-10-22T04:27:00;100661.09;;;12.84;92.08
74716;BME280;63234;37.558;127.058;2022-10-22T04:29:25;100662.50;;;12.86;91.92
74716;BME280;63234;37.558;127.058;2022-10-22T04:31:51;100653.31;;;12.82;91.79
74716;BME280;63234;37.558;127.058;2022-10-22T04:34:16;100654.13;;;12.83;91.72
74716;BME280;63234;37.558;127.058;2022-10-22T04:36:41;100658.88;;;12.81;91.61
74716;BME280;63234;37.558;127.058;2022-10-22T04:39:07;100664.66;;;12.78;91.95
74716;BME280;63234;37.558;127.058;2022-10-22T04:41:34;100660.16;;;12.78;91.90
74716;BME280;63234;37.558;127.058;2022-10-22T04:44:01;100663.63;;;12.79;91.77
74716;BME280;63234;37.558;127.058;2022-10-22T04:46:29;100658.06;;;12.80;91.62
74716;BME280;63234;37.558;127.058;2022-10-22T04:48:55;100668.00;;;12.73;91.50
74716;BME280;63234;37.558;127.058;2022-10-22T04:51:22;100662.66;;;12.73;91.70
74716;BME280;63234;37.558;127.058;2022-10-22T04:53:48;100669.25;;;12.71;91.69
74716;BME280;63234;37.558;127.058;2022-10-22T04:56:16;100670.88;;;12.72;91.53
74716;BME280;63234;37.558;127.058;2022-10-22T04:58:47;100670.88;;;12.72;91.20
74716;BME280;63234;37.558;127.058;2022-10-22T05:01:17;100676.22;;;12.72;91.20
74716;BME280;63234;37.558;127.058;2022-10-22T05:03:44;100677.69;;;12.68;91.27
74716;BME280;63234;37.558;127.058;2022-10-22T05:06:10;100681.63;;;12.65;91.33
74716;BME280;63234;37.558;127.058;2022-10-22T05:08:35;100675.28;;;12.66;91.22
74716;BME280;63234;37.558;127.058;2022-10-22T05:11:13;100682.44;;;12.66;91.31
74716;BME280;63234;37.558;127.058;2022-10-22T05:13:39;100677.25;;;12.71;90.94
74716;BME280;63234;37.558;127.058;2022-10-22T05:16:05;100680.81;;;12.65;91.09
74716;BME280;63234;37.558;127.058;2022-10-22T05:18:33;100679.75;;;12.66;90.88
74716;BME280;63234;37.558;127.058;2022-10-22T05:20:59;100677.88;;;12.73;90.68
74716;BME280;63234;37.558;127.058;2022-10-22T05:23:24;100686.44;;;12.75;90.43
74716;BME280;63234;37.558;127.058;2022-10-22T05:25:50;100686.31;;;12.70;90.34
74716;BME280;63234;37.558;127.058;2022-10-22T05:28:15;100684.44;;;12.70;90.39
74716;BME280;63234;37.558;127.058;2022-10-22T05:30:41;100687.72;;;12.72;90.10
74716;BME280;63234;37.558;127.058;2022-10-22T05:33:06;100684.75;;;12.80;89.88
74716;BME280;63234;37.558;127.058;2022-10-22T05:35:31;100700.84;;;12.74;89.89
74716;BME280;63234;37.558;127.058;2022-10-22T05:37:57;100700.09;;;12.67;90.04
74716;BME280;63234;37.558;127.058;2022-10-22T05:40:22;100697.13;;;12.75;89.80
74716;BME280;63234;37.558;127.058;2022-10-22T05:42:47;100701.19;;;12.77;89.41
74716;BME280;63234;37.558;127.058;2022-10-22T05:45:13;100699.75;;;12.81;89.13
74716;BME280;63234;37.558;127.058;2022-10-22T05:47:38;100707.75;;;12.81;88.79
74716;BME280;63234;37.558;127.058;2022-10-22T05:50:04;100707.34;;;12.78;88.85
74716;BME280;63234;37.558;127.058;2022-10-22T05:52:29;100712.56;;;12.73;89.16
74716;BME280;63234;37.558;127.058;2022-10-22T05:54:55;100710.31;;;12.70;89.30
74716;BME280;63234;37.558;127.058;2022-10-22T05:57:20;100720.56;;;12.73;89.23
74716;BME280;63234;37.558;127.058;2022-10-22T05:59:45;100722.63;;;12.71;89.18
74716;BME280;63234;37.558;127.058;2022-10-22T06:02:11;100730.03;;;12.69;88.99
74716;BME280;63234;37.558;127.058;2022-10-22T06:04:36;100717.34;;;12.64;89.31
74716;BME280;63234;37.558;127.058;2022-10-22T06:07:01;100725.13;;;12.66;89.52
74716;BME280;63234;37.558;127.058;2022-10-22T06:09:30;100727.97;;;12.71;89.22
74716;BME280;63234;37.558;127.058;2022-10-22T06:11:56;100734.28;;;12.76;89.12
74716;BME280;63234;37.558;127.058;2022-10-22T06:14:23;100733.47;;;12.76;89.03
74716;BME280;63234;37.558;127.058;2022-10-22T06:16:49;100736.66;;;12.84;88.20
74716;BME280;63234;37.558;127.058;2022-10-22T06:19:17;100738.50;;;12.84;87.93
74716;BME280;63234;37.558;127.058;2022-10-22T06:21:43;100741.94;;;12.91;88.03
74716;BME280;63234;37.558;127.058;2022-10-22T06:24:09;100740.06;;;12.92;87.86
74716;BME280;63234;37.558;127.058;2022-10-22T06:26:35;100747.25;;;12.91;87.98
74716;BME280;63234;37.558;127.058;2022-10-22T06:29:00;100756.09;;;12.92;87.89
74716;BME280;63234;37.558;127.058;2022-10-22T06:31:26;100758.16;;;12.90;88.21
74716;BME280;63234;37.558;127.058;2022-10-22T06:33:52;100765.63;;;12.99;87.49
74716;BME280;63234;37.558;127.058;2022-10-22T06:36:21;100760.91;;;13.01;87.24
74716;BME280;63234;37.558;127.058;2022-10-22T06:38:51;100772.34;;;13.08;86.90
74716;BME280;63234;37.558;127.058;2022-10-22T06:41:17;100765.88;;;13.16;86.84
74716;BME280;63234;37.558;127.058;2022-10-22T06:43:43;100775.16;;;13.14;86.70
74716;BME280;63234;37.558;127.058;2022-10-22T06:46:09;100783.75;;;13.16;86.75
74716;BME280;63234;37.558;127.058;2022-10-22T06:48:36;100788.22;;;13.22;86.41
74716;BME280;63234;37.558;127.058;2022-10-22T06:51:04;100798.09;;;13.21;86.92
74716;BME280;63234;37.558;127.058;2022-10-22T06:53:30;100797.66;;;13.24;86.19
74716;BME280;63234;37.558;127.058;2022-10-22T06:55:56;100797.59;;;13.31;85.00
74716;BME280;63234;37.558;127.058;2022-10-22T06:58:21;100807.09;;;13.27;85.92
74716;BME280;63234;37.558;127.058;2022-10-22T07:00:46;100806.25;;;13.26;85.70
74716;BME280;63234;37.558;127.058;2022-10-22T07:03:13;100808.28;;;13.31;85.36
74716;BME280;63234;37.558;127.058;2022-10-22T07:05:39;100803.81;;;13.25;85.89
74716;BME280;63234;37.558;127.058;2022-10-22T07:08:04;100818.59;;;13.27;85.80
74716;BME280;63234;37.558;127.058;2022-10-22T07:10:30;100818.66;;;13.21;85.86
74716;BME280;63234;37.558;127.058;2022-10-22T07:12:55;100827.88;;;13.25;85.65
74716;BME280;63234;37.558;127.058;2022-10-22T07:15:21;100827.63;;;13.26;85.18
74716;BME280;63234;37.558;127.058;2022-10-22T07:17:47;100834.22;;;13.24;85.46
74716;BME280;63234;37.558;127.058;2022-10-22T07:20:12;100835.44;;;13.28;85.38
74716;BME280;63234;37.558;127.058;2022-10-22T07:22:38;100830.09;;;13.28;85.24
74716;BME280;63234;37.558;127.058;2022-10-22T07:25:03;100840.81;;;13.21;85.15
74716;BME280;63234;37.558;127.058;2022-10-22T07:27:29;100843.25;;;13.23;85.07
74716;BME280;63234;37.558;127.058;2022-10-22T07:29:54;100838.31;;;13.26;85.57
74716;BME280;63234;37.558;127.058;2022-10-22T07:32:20;100848.19;;;13.26;85.33
74716;BME280;63234;37.558;127.058;2022-10-22T07:34:45;100849.41;;;13.30;85.19
74716;BME280;63234;37.558;127.058;2022-10-22T07:37:10;100847.66;;;13.36;84.98
74716;BME280;63234;37.558;127.058;2022-10-22T07:39:36;100852.56;;;13.39;84.57
74716;BME280;63234;37.558;127.058;2022-10-22T07:42:02;100860.53;;;13.45;84.63
74716;BME280;63234;37.558;127.058;2022-10-22T07:44:28;100866.97;;;13.38;84.90
74716;BME280;63234;37.558;127.058;2022-10-22T07:46:53;100865.88;;;13.45;84.92
74716;BME280;63234;37.558;127.058;2022-10-22T07:49:18;100866.75;;;13.39;84.81
74716;BME280;63234;37.558;127.058;2022-10-22T07:51:44;100878.47;;;13.38;84.94
74716;BME280;63234;37.558;127.058;2022-10-22T07:54:09;100877.28;;;13.52;85.21
74716;BME280;63234;37.558;127.058;2022-10-22T07:56:34;100873.38;;;13.55;84.11
74716;BME280;63234;37.558;127.058;2022-10-22T07:59:00;100886.38;;;13.51;84.16
74716;BME280;63234;37.558;127.058;2022-10-22T08:01:25;100882.81;;;13.58;84.11
74716;BME280;63234;37.558;127.058;2022-10-22T08:03:51;100880.88;;;13.65;84.25
74716;BME280;63234;37.558;127.058;2022-10-22T08:06:16;100885.16;;;13.66;83.57
74716;BME280;63234;37.558;127.058;2022-10-22T08:08:42;100892.16;;;13.67;83.27
74716;BME280;63234;37.558;127.058;2022-10-22T08:11:10;100905.19;;;13.75;83.52
74716;BME280;63234;37.558;127.058;2022-10-22T08:13:35;100898.69;;;13.71;84.10
74716;BME280;63234;37.558;127.058;2022-10-22T08:16:01;100904.63;;;13.73;83.62
74716;BME280;63234;37.558;127.058;2022-10-22T08:18:26;100906.84;;;13.76;83.41
74716;BME280;63234;37.558;127.058;2022-10-22T08:20:52;100909.53;;;13.76;83.92
74716;BME280;63234;37.558;127.058;2022-10-22T08:23:17;100909.75;;;13.74;83.09
74716;BME280;63234;37.558;127.058;2022-10-22T08:25:44;100912.13;;;13.83;83.34
74716;BME280;63234;37.558;127.058;2022-10-22T08:28:10;100915.75;;;13.88;83.35
74716;BME280;63234;37.558;127.058;2022-10-22T08:30:36;100921.84;;;13.95;83.14
74716;BME280;63234;37.558;127.058;2022-10-22T08:33:04;100918.56;;;13.93;83.15
74716;BME280;63234;37.558;127.058;2022-10-22T08:35:30;100932.63;;;13.89;82.64
74716;BME280;63234;37.558;127.058;2022-10-22T08:37:55;100931.72;;;13.95;83.58
74716;BME280;63234;37.558;127.058;2022-10-22T08:40:26;100924.44;;;14.02;82.84
74716;BME280;63234;37.558;127.058;2022-10-22T08:46:16;100934.81;;;14.10;82.56
74716;BME280;63234;37.558;127.058;2022-10-22T08:48:48;100940.44;;;14.20;82.20
74716;BME280;63234;37.558;127.058;2022-10-22T08:51:18;100942.91;;;14.22;81.96
74716;BME280;63234;37.558;127.058;2022-10-22T08:54:00;100951.16;;;14.20;82.07
74716;BME280;63234;37.558;127.058;2022-10-22T08:56:30;100952.19;;;14.19;81.96
74716;BME280;63234;37.558;127.058;2022-10-22T09:01:48;100964.38;;;14.34;81.11
74716;BME280;63234;37.558;127.058;2022-10-22T09:04:36;100967.13;;;14.45;79.95
74716;BME280;63234;37.558;127.058;2022-10-22T09:07:08;100962.72;;;14.51;80.98
74716;BME280;63234;37.558;127.058;2022-10-22T09:09:41;100965.25;;;14.46;81.38
74716;BME280;63234;37.558;127.058;2022-10-22T09:12:13;100974.91;;;14.47;80.72
74716;BME280;63234;37.558;127.058;2022-10-22T09:14:39;100979.16;;;14.55;80.66
74716;BME280;63234;37.558;127.058;2022-10-22T09:17:25;100976.69;;;14.53;81.04
74716;BME280;63234;37.558;127.058;2022-10-22T09:20:21;100982.78;;;14.60;80.38
74716;BME280;63234;37.558;127.058;2022-10-22T09:23:09;100983.22;;;14.57;79.89
74716;BME280;63234;37.558;127.058;2022-10-22T09:25:37;100982.09;;;14.65;79.89
74716;BME280;63234;37.558;127.058;2022-10-22T09:28:03;100991.31;;;14.69;80.68
74716;BME280;63234;37.558;127.058;2022-10-22T09:30:32;100991.31;;;14.69;80.27
74716;BME280;63234;37.558;127.058;2022-10-22T09:33:06;100996.03;;;14.85;81.02
74716;BME280;63234;37.558;127.058;2022-10-22T09:35:34;100991.44;;;14.74;80.52
74716;BME280;63234;37.558;127.058;2022-10-22T09:38:07;101000.09;;;14.88;80.04
74716;BME280;63234;37.558;127.058;2022-10-22T09:40:50;101003.38;;;14.90;79.64
74716;BME280;63234;37.558;127.058;2022-10-22T09:43:17;101011.03;;;14.86;79.38
74716;BME280;63234;37.558;127.058;2022-10-22T09:45:44;101010.50;;;14.96;78.80
74716;BME280;63234;37.558;127.058;2022-10-22T09:48:18;101015.75;;;15.03;78.73
74716;BME280;63234;37.558;127.058;2022-10-22T09:50:47;101018.16;;;14.93;79.75
74716;BME280;63234;37.558;127.058;2022-10-22T09:53:20;101025.41;;;14.92;79.41
74716;BME280;63234;37.558;127.058;2022-10-22T09:55:50;101031.41;;;14.87;80.24
74716;BME280;63234;37.558;127.058;2022-10-22T09:58:17;101026.66;;;14.89;80.43
74716;BME280;63234;37.558;127.058;2022-10-22T10:00:45;101028.28;;;14.90;79.73
74716;BME280;63234;37.558;127.058;2022-10-22T10:03:16;101030.19;;;15.02;79.71
74716;BME280;63234;37.558;127.058;2022-10-22T10:05:46;101037.41;;;15.01;79.43
74716;BME280;63234;37.558;127.058;2022-10-22T10:08:14;101041.72;;;15.02;78.86
74716;BME280;63234;37.558;127.058;2022-10-22T10:10:47;101046.41;;;15.07;79.16
74716;BME280;63234;37.558;127.058;2022-10-22T10:16:38;101055.75;;;15.16;79.15
74716;BME280;63234;37.558;127.058;2022-10-22T10:19:27;101054.84;;;15.46;78.84
74716;BME280;63234;37.558;127.058;2022-10-22T10:22:22;101051.63;;;15.44;77.91
74716;BME280;63234;37.558;127.058;2022-10-22T10:25:19;101050.69;;;15.50;77.91
74716;BME280;63234;37.558;127.058;2022-10-22T10:27:47;101061.41;;;15.50;77.81
74716;BME280;63234;37.558;127.058;2022-10-22T10:30:19;101065.81;;;15.44;78.11
74716;BME280;63234;37.558;127.058;2022-10-22T10:33:00;101067.22;;;15.47;77.96
74716;BME280;63234;37.558;127.058;2022-10-22T10:35:38;101074.09;;;15.43;78.11
74716;BME280;63234;37.558;127.058;2022-10-22T10:41:32;101077.81;;;15.42;77.65
74716;BME280;63234;37.558;127.058;2022-10-22T10:44:25;101083.31;;;15.47;79.17
74716;BME280;63234;37.558;127.058;2022-10-22T10:47:18;101085.50;;;15.38;77.93
74716;BME280;63234;37.558;127.058;2022-10-22T10:49:52;101085.03;;;15.41;78.11
74716;BME280;63234;37.558;127.058;2022-10-22T10:52:27;101082.97;;;15.43;78.61
74716;BME280;63234;37.558;127.058;2022-10-22T10:55:12;101075.72;;;15.44;78.61
74716;BME280;63234;37.558;127.058;2022-10-22T10:57:56;101078.75;;;15.47;77.36
74716;BME280;63234;37.558;127.058;2022-10-22T11:00:24;101077.59;;;15.43;78.48
74716;BME280;63234;37.558;127.058;2022-10-22T11:03:24;101087.28;;;15.44;78.41
74716;BME280;63234;37.558;127.058;2022-10-22T11:05:51;101086.00;;;15.47;77.46
74716;BME280;63234;37.558;127.058;2022-10-22T11:08:36;101083.66;;;15.50;77.94
74716;BME280;63234;37.558;127.058;2022-10-22T11:11:12;101083.78;;;15.44;78.45
74716;BME280;63234;37.558;127.058;2022-10-22T11:13:46;101072.22;;;15.55;78.48
74716;BME280;63234;37.558;127.058;2022-10-22T11:16:50;101071.22;;;15.56;77.99
74716;BME280;63234;37.558;127.058;2022-10-22T11:19:23;101069.47;;;15.62;78.30
74716;BME280;63234;37.558;127.058;2022-10-22T11:22:14;101077.63;;;15.67;76.82
74716;BME280;63234;37.558;127.058;2022-10-22T11:24:55;101071.59;;;15.71;75.45
74716;BME280;63234;37.558;127.058;2022-10-22T11:27:30;101075.91;;;15.72;76.03
74716;BME280;63234;37.558;127.058;2022-10-22T11:30:01;101068.34;;;15.69;75.70
74716;BME280;63234;37.558;127.058;2022-10-22T11:32:28;101063.09;;;15.74;75.63
74716;BME280;63234;37.558;127.058;2022-10-22T11:34:57;101062.63;;;15.77;75.81
74716;BME280;63234;37.558;127.058;2022-10-22T11:37:25;101067.06;;;15.83;76.59
74716;BME280;63234;37.558;127.058;2022-10-22T11:39:56;101067.19;;;15.77;78.09
74716;BME280;63234;37.558;127.058;2022-10-22T11:42:45;101064.59;;;15.94;75.53
74716;BME280;63234;37.558;127.058;2022-10-22T11:45:30;101052.59;;;16.08;74.96
74716;BME280;63234;37.558;127.058;2022-10-22T11:48:17;101053.19;;;15.98;74.23
74716;BME280;63234;37.558;127.058;2022-10-22T11:50:49;101062.38;;;15.91;75.02
74716;BME280;63234;37.558;127.058;2022-10-22T11:53:29;101056.47;;;15.77;75.70
74716;BME280;63234;37.558;127.058;2022-10-22T11:55:56;101057.84;;;15.68;75.72
74716;BME280;63234;37.558;127.058;2022-10-22T11:58:34;101057.72;;;15.74;75.55
74716;BME280;63234;37.558;127.058;2022-10-22T12:01:27;101054.22;;;15.97;75.41
74716;BME280;63234;37.558;127.058;2022-10-22T12:04:14;101058.44;;;15.81;75.99
74716;BME280;63234;37.558;127.058;2022-10-22T12:07:00;101060.75;;;15.78;77.31
74716;BME280;63234;37.558;127.058;2022-10-22T12:09:28;101065.53;;;15.76;75.37
74716;BME280;63234;37.558;127.058;2022-10-22T12:12:11;101065.31;;;15.77;77.38
74716;BME280;63234;37.558;127.058;2022-10-22T12:14:51;101071.13;;;15.74;76.89
74716;BME280;63234;37.558;127.058;2022-10-22T12:17:19;101071.13;;;15.74;77.31
74716;BME280;63234;37.558;127.058;2022-10-22T12:19:48;101083.22;;;15.65;78.35
74716;BME280;63234;37.558;127.058;2022-10-22T12:22:27;101077.56;;;15.73;77.05
74716;BME280;63234;37.558;127.058;2022-10-22T12:24:55;101073.56;;;15.76;76.86
74716;BME280;63234;37.558;127.058;2022-10-22T12:27:25;101082.09;;;15.96;78.83
74716;BME280;63234;37.558;127.058;2022-10-22T12:29:55;101082.22;;;15.90;74.57
74716;BME280;63234;37.558;127.058;2022-10-22T12:32:22;101077.78;;;15.83;77.07
74716;BME280;63234;37.558;127.058;2022-10-22T12:34:50;101079.06;;;15.81;75.73
74716;BME280;63234;37.558;127.058;2022-10-22T12:37:16;101078.94;;;15.76;75.73
74716;BME280;63234;37.558;127.058;2022-10-22T12:39:44;101075.78;;;15.79;75.56
74716;BME280;63234;37.558;127.058;2022-10-22T12:42:15;101076.84;;;15.90;75.39
74716;BME280;63234;37.558;127.058;2022-10-22T12:44:42;101081.97;;;16.03;75.68
74716;BME280;63234;37.558;127.058;2022-10-22T12:47:13;101074.72;;;16.39;73.15
74716;BME280;63234;37.558;127.058;2022-10-22T12:49:42;101072.53;;;16.76;70.72
74716;BME280;63234;37.558;127.058;2022-10-22T12:52:14;101064.47;;;16.76;73.09
74716;BME280;63234;37.558;127.058;2022-10-22T12:54:40;101063.88;;;16.74;70.39
74716;BME280;63234;37.558;127.058;2022-10-22T12:57:11;101065.66;;;16.80;72.66
74716;BME280;63234;37.558;127.058;2022-10-22T12:59:41;101068.34;;;16.80;71.91
74716;BME280;63234;37.558;127.058;2022-10-22T13:02:20;101072.44;;;16.71;71.38
74716;BME280;63234;37.558;127.058;2022-10-22T13:05:22;101061.78;;;16.76;70.73